Nrc Patriot II — WDA8587 — position and weather

sailwx.info

Track history (hours):
 
Tides and Currents Weather Stations Pressure Air Temp Water Temp Dewpoint Dewpoint Depression Visibility Wind Speed Wind Dir Waves Ship Positions

Nrc Patriot II

Owner: National Response Corporation, HOUSTON, TX. More information available from US FCC via Universal Licensing System and Coast Guard Vessel Documentation Center.

Last reported at 2015-Apr-22 02:32 UTC. Time now 2015-Apr-22 03:48 UTC.
Position N 33°44' W 118°16'.

Length 30 m; draft 3.5 m.

Type: Port tender. MMSI: 366855940.

Date/timePositionNaut miles runAvg speedWind from/ knotsBaromVisibWave heightAir tempDewpointWater temp
2015-Apr-22 02:32N 33°44' W 118°16'0 0.0
2015-Apr-21 19:11N 33°44' W 118°16'0 0.0
2015-Apr-21 17:26N 33°44' W 118°16'12 0.6
2015-Apr-20 23:22N 33°35' W 118°08'0 0.0
2015-Apr-20 17:24N 33°35' W 118°08'7 8.1
2015-Apr-20 16:28N 33°41' W 118°13'4 0.5
2015-Apr-20 08:32N 33°44' W 118°16'0 0.0
2015-Apr-20 07:19N 33°44' W 118°16'0 0.0
2015-Apr-20 06:33N 33°44' W 118°16'0 0.0
2015-Apr-20 05:33N 33°44' W 118°16'0 0.0
2015-Apr-20 04:32N 33°44' W 118°16'0 0.0
2015-Apr-20 03:33N 33°44' W 118°16'0 0.0
2015-Apr-20 02:33N 33°44' W 118°16'0 0.0
2015-Apr-20 01:33N 33°44' W 118°16'0 0.0
2015-Apr-20 00:32N 33°44' W 118°16'0 0.0
2015-Apr-19 23:33N 33°44' W 118°16'5 5.4
2015-Apr-19 22:33N 33°40' W 118°12'6 6.2
2015-Apr-19 21:33N 33°35' W 118°08'0 0.0
2015-Apr-19 20:33N 33°35' W 118°08'1 1.2
2015-Apr-19 19:33N 33°34' W 118°07'2 1.8
2015-Apr-19 18:33N 33°35' W 118°08'9 9.1
2015-Apr-19 17:33N 33°43' W 118°15'2 1.7
2015-Apr-19 16:28N 33°44' W 118°16'0 0.0
2015-Apr-19 15:32N 33°44' W 118°16'0 0.0
2015-Apr-19 14:08N 33°44' W 118°16'0 0.0
2015-Apr-19 13:33N 33°44' W 118°16'0 0.0
2015-Apr-19 12:33N 33°44' W 118°16'0 0.0
2015-Apr-19 11:33N 33°44' W 118°16'0 0.0
2015-Apr-19 10:31N 33°44' W 118°16'1 1.0
2015-Apr-19 09:33N 33°43' W 118°16'1010.2
2015-Apr-19 08:33N 33°35' W 118°08'1 0.7
2015-Apr-19 07:33N 33°35' W 118°08'0 0.2
2015-Apr-19 06:33N 33°35' W 118°08'7 7.3
2015-Apr-19 05:33N 33°41' W 118°13'4 4.3
2015-Apr-19 04:33N 33°44' W 118°16'0 0.0
2015-Apr-19 03:33N 33°44' W 118°16'0 0.0
2015-Apr-19 02:33N 33°44' W 118°16'0 0.0
2015-Apr-19 01:33N 33°44' W 118°16'4 3.6
2015-Apr-19 00:33N 33°41' W 118°13'8 8.0
2015-Apr-18 23:33N 33°35' W 118°08'0 0.2
2015-Apr-18 22:33N 33°35' W 118°08'4 3.9
2015-Apr-18 21:33N 33°38' W 118°10'8 7.8
2015-Apr-18 20:33N 33°44' W 118°16'0 0.0
2015-Apr-18 19:33N 33°44' W 118°16'0 0.0
2015-Apr-18 18:33N 33°44' W 118°16'0 0.0
2015-Apr-18 17:33N 33°44' W 118°16'0 0.0
2015-Apr-18 16:33N 33°44' W 118°16'0 0.0
2015-Apr-18 15:33N 33°44' W 118°16'0 0.0
2015-Apr-18 14:33N 33°44' W 118°16'0 0.0
2015-Apr-18 13:32N 33°44' W 118°16'0 0.0
2015-Apr-18 12:33N 33°44' W 118°16'0 0.0
2015-Apr-18 11:33N 33°44' W 118°16'0 0.0
2015-Apr-18 10:33N 33°44' W 118°16'0 0.0
2015-Apr-18 09:33N 33°44' W 118°16'0 0.0
2015-Apr-18 08:28N 33°44' W 118°16'0 0.0
2015-Apr-18 07:33N 33°44' W 118°16'0 0.0
2015-Apr-18 06:33N 33°44' W 118°16'0 0.0
2015-Apr-18 05:33N 33°44' W 118°16'0 0.0
2015-Apr-18 04:33N 33°44' W 118°16'0 0.0
2015-Apr-18 03:33N 33°44' W 118°16'0 0.0
2015-Apr-18 02:33N 33°44' W 118°16'0 0.0
2015-Apr-18 01:33N 33°44' W 118°16'0 0.0
2015-Apr-18 00:33N 33°44' W 118°16'0 0.0
2015-Apr-17 23:33N 33°44' W 118°16'0 0.0
2015-Apr-17 22:33N 33°44' W 118°16'0 0.0
2015-Apr-17 21:33N 33°44' W 118°16'0 0.0
2015-Apr-17 20:26N 33°44' W 118°16'0 0.0
2015-Apr-17 18:18N 33°44' W 118°16'0 0.0
2015-Apr-17 17:33N 33°44' W 118°16'0 0.0
2015-Apr-17 16:33N 33°44' W 118°16'0 0.0
2015-Apr-17 15:31N 33°44' W 118°16'0 0.0
2015-Apr-17 14:33N 33°44' W 118°16'0 0.0
2015-Apr-17 13:05N 33°44' W 118°16'0 0.0
2015-Apr-17 12:09N 33°44' W 118°16'1 1.5
2015-Apr-17 11:15N 33°43' W 118°16'710.2
2015-Apr-17 10:33N 33°37' W 118°11'3 3.3
2015-Apr-17 09:32N 33°35' W 118°08'0 0.1
2015-Apr-17 08:33N 33°35' W 118°08'0 0.0
2015-Apr-17 06:28N 33°35' W 118°08'0 0.0
2015-Apr-17 05:31N 33°35' W 118°08'0 0.0
2015-Apr-17 04:33N 33°35' W 118°08'2 1.9
2015-Apr-17 03:33N 33°37' W 118°09'10 9.5
2015-Apr-17 02:33N 33°44' W 118°16'0 0.3
2015-Apr-17 01:33N 33°44' W 118°16'0 0.0
2015-Apr-16 20:23N 33°44' W 118°16'0 0.0
2015-Apr-16 15:33N 33°44' W 118°16'0 0.0
2015-Apr-16 14:33N 33°44' W 118°16'0 0.0
2015-Apr-16 13:33N 33°44' W 118°16'0 0.0
2015-Apr-16 12:33N 33°44' W 118°16'0 0.0
2015-Apr-16 11:33N 33°44' W 118°16'0 0.0
2015-Apr-16 10:33N 33°44' W 118°16'0 0.0
2015-Apr-16 09:33N 33°44' W 118°16'0 0.0
2015-Apr-16 08:33N 33°44' W 118°16'0 0.0
2015-Apr-16 07:33N 33°44' W 118°16'0 0.1
2015-Apr-16 06:32N 33°44' W 118°16'7 7.3
2015-Apr-16 05:30N 33°43' W 118°25'1111.6
2015-Apr-16 04:33N 33°47' W 118°37'1211.6
2015-Apr-16 03:33N 33°53' W 118°49'1211.7
2015-Apr-16 02:33N 33°59' W 119°01'1111.3
2015-Apr-16 01:33N 34°06' W 119°13'3 2.5
2015-Apr-16 00:12N 34°09' W 119°12'0 0.3
2015-Apr-15 23:24N 34°09' W 119°12'0 0.0
2015-Apr-15 22:16N 34°09' W 119°12'0 0.0
2015-Apr-14 03:30N 34°09' W 119°12'0 0.0
2015-Apr-14 02:28N 34°09' W 119°12'21 6.2
2015-Apr-13 23:09N 34°17' W 119°35'21 0.9
2015-Apr-13 00:33N 34°09' W 119°12'  
Track history (hours):
 
Tides and Currents Weather Stations Pressure Air Temp Water Temp Dewpoint Dewpoint Depression Visibility Wind Speed Wind Dir Waves Ship Positions

Nrc Patriot II

Owner: National Response Corporation, HOUSTON, TX. More information available from US FCC via Universal Licensing System and Coast Guard Vessel Documentation Center.

Last reported at 2015-Apr-22 02:32 UTC. Time now 2015-Apr-22 03:48 UTC.
Position N 33°44' W 118°16'.

Length 30 m; draft 3.5 m.

Type: Port tender. MMSI: 366855940.

Date/timePositionNaut miles runAvg speedWind from/ knotsBaromVisibWave heightAir tempDewpointWater temp
2015-Apr-22 02:32N 33°44' W 118°16'0 0.0
2015-Apr-21 19:11N 33°44' W 118°16'0 0.0
2015-Apr-21 17:26N 33°44' W 118°16'12 0.6
2015-Apr-20 23:22N 33°35' W 118°08'0 0.0
2015-Apr-20 17:24N 33°35' W 118°08'7 8.1
2015-Apr-20 16:28N 33°41' W 118°13'4 0.5
2015-Apr-20 08:32N 33°44' W 118°16'0 0.0
2015-Apr-20 07:19N 33°44' W 118°16'0 0.0
2015-Apr-20 06:33N 33°44' W 118°16'0 0.0
2015-Apr-20 05:33N 33°44' W 118°16'0 0.0
2015-Apr-20 04:32N 33°44' W 118°16'0 0.0
2015-Apr-20 03:33N 33°44' W 118°16'0 0.0
2015-Apr-20 02:33N 33°44' W 118°16'0 0.0
2015-Apr-20 01:33N 33°44' W 118°16'0 0.0
2015-Apr-20 00:32N 33°44' W 118°16'0 0.0
2015-Apr-19 23:33N 33°44' W 118°16'5 5.4
2015-Apr-19 22:33N 33°40' W 118°12'6 6.2
2015-Apr-19 21:33N 33°35' W 118°08'0 0.0
2015-Apr-19 20:33N 33°35' W 118°08'1 1.2
2015-Apr-19 19:33N 33°34' W 118°07'2 1.8
2015-Apr-19 18:33N 33°35' W 118°08'9 9.1
2015-Apr-19 17:33N 33°43' W 118°15'2 1.7
2015-Apr-19 16:28N 33°44' W 118°16'0 0.0
2015-Apr-19 15:32N 33°44' W 118°16'0 0.0
2015-Apr-19 14:08N 33°44' W 118°16'0 0.0
2015-Apr-19 13:33N 33°44' W 118°16'0 0.0
2015-Apr-19 12:33N 33°44' W 118°16'0 0.0
2015-Apr-19 11:33N 33°44' W 118°16'0 0.0
2015-Apr-19 10:31N 33°44' W 118°16'1 1.0
2015-Apr-19 09:33N 33°43' W 118°16'1010.2
2015-Apr-19 08:33N 33°35' W 118°08'1 0.7
2015-Apr-19 07:33N 33°35' W 118°08'0 0.2
2015-Apr-19 06:33N 33°35' W 118°08'7 7.3
2015-Apr-19 05:33N 33°41' W 118°13'4 4.3
2015-Apr-19 04:33N 33°44' W 118°16'0 0.0
2015-Apr-19 03:33N 33°44' W 118°16'0 0.0
2015-Apr-19 02:33N 33°44' W 118°16'0 0.0
2015-Apr-19 01:33N 33°44' W 118°16'4 3.6
2015-Apr-19 00:33N 33°41' W 118°13'8 8.0
2015-Apr-18 23:33N 33°35' W 118°08'0 0.2
2015-Apr-18 22:33N 33°35' W 118°08'4 3.9
2015-Apr-18 21:33N 33°38' W 118°10'8 7.8
2015-Apr-18 20:33N 33°44' W 118°16'0 0.0
2015-Apr-18 19:33N 33°44' W 118°16'0 0.0
2015-Apr-18 18:33N 33°44' W 118°16'0 0.0
2015-Apr-18 17:33N 33°44' W 118°16'0 0.0
2015-Apr-18 16:33N 33°44' W 118°16'0 0.0
2015-Apr-18 15:33N 33°44' W 118°16'0 0.0
2015-Apr-18 14:33N 33°44' W 118°16'0 0.0
2015-Apr-18 13:32N 33°44' W 118°16'0 0.0
2015-Apr-18 12:33N 33°44' W 118°16'0 0.0
2015-Apr-18 11:33N 33°44' W 118°16'0 0.0
2015-Apr-18 10:33N 33°44' W 118°16'0 0.0
2015-Apr-18 09:33N 33°44' W 118°16'0 0.0
2015-Apr-18 08:28N 33°44' W 118°16'0 0.0
2015-Apr-18 07:33N 33°44' W 118°16'0 0.0
2015-Apr-18 06:33N 33°44' W 118°16'0 0.0
2015-Apr-18 05:33N 33°44' W 118°16'0 0.0
2015-Apr-18 04:33N 33°44' W 118°16'0 0.0
2015-Apr-18 03:33N 33°44' W 118°16'0 0.0
2015-Apr-18 02:33N 33°44' W 118°16'0 0.0
2015-Apr-18 01:33N 33°44' W 118°16'0 0.0
2015-Apr-18 00:33N 33°44' W 118°16'0 0.0
2015-Apr-17 23:33N 33°44' W 118°16'0 0.0
2015-Apr-17 22:33N 33°44' W 118°16'0 0.0
2015-Apr-17 21:33N 33°44' W 118°16'0 0.0
2015-Apr-17 20:26N 33°44' W 118°16'0 0.0
2015-Apr-17 18:18N 33°44' W 118°16'0 0.0
2015-Apr-17 17:33N 33°44' W 118°16'0 0.0
2015-Apr-17 16:33N 33°44' W 118°16'0 0.0
2015-Apr-17 15:31N 33°44' W 118°16'0 0.0
2015-Apr-17 14:33N 33°44' W 118°16'0 0.0
2015-Apr-17 13:05N 33°44' W 118°16'0 0.0
2015-Apr-17 12:09N 33°44' W 118°16'1 1.5
2015-Apr-17 11:15N 33°43' W 118°16'710.2
2015-Apr-17 10:33N 33°37' W 118°11'3 3.3
2015-Apr-17 09:32N 33°35' W 118°08'0 0.1
2015-Apr-17 08:33N 33°35' W 118°08'0 0.0
2015-Apr-17 06:28N 33°35' W 118°08'0 0.0
2015-Apr-17 05:31N 33°35' W 118°08'0 0.0
2015-Apr-17 04:33N 33°35' W 118°08'2 1.9
2015-Apr-17 03:33N 33°37' W 118°09'10 9.5
2015-Apr-17 02:33N 33°44' W 118°16'0 0.3
2015-Apr-17 01:33N 33°44' W 118°16'0 0.0
2015-Apr-16 20:23N 33°44' W 118°16'0 0.0
2015-Apr-16 15:33N 33°44' W 118°16'0 0.0
2015-Apr-16 14:33N 33°44' W 118°16'0 0.0
2015-Apr-16 13:33N 33°44' W 118°16'0 0.0
2015-Apr-16 12:33N 33°44' W 118°16'0 0.0
2015-Apr-16 11:33N 33°44' W 118°16'0 0.0
2015-Apr-16 10:33N 33°44' W 118°16'0 0.0
2015-Apr-16 09:33N 33°44' W 118°16'0 0.0
2015-Apr-16 08:33N 33°44' W 118°16'0 0.0
2015-Apr-16 07:33N 33°44' W 118°16'0 0.1
2015-Apr-16 06:32N 33°44' W 118°16'7 7.3
2015-Apr-16 05:30N 33°43' W 118°25'1111.6
2015-Apr-16 04:33N 33°47' W 118°37'1211.6
2015-Apr-16 03:33N 33°53' W 118°49'1211.7
2015-Apr-16 02:33N 33°59' W 119°01'1111.3
2015-Apr-16 01:33N 34°06' W 119°13'3 2.5
2015-Apr-16 00:12N 34°09' W 119°12'0 0.3
2015-Apr-15 23:24N 34°09' W 119°12'0 0.0
2015-Apr-15 22:16N 34°09' W 119°12'0 0.0
2015-Apr-14 03:30N 34°09' W 119°12'0 0.0
2015-Apr-14 02:28N 34°09' W 119°12'21 6.2
2015-Apr-13 23:09N 34°17' W 119°35'21 0.9
2015-Apr-13 00:33N 34°09' W 119°12'  

Dump ship's entire track history